Time;durP1;ratioP1;P1;durP2;ratioP2;P2;SDS_P1;SDS_P2;PMS_P1;PMS_P2;Temp;Humidity;BMP_temperature;BMP_pressure;BME280_temperature;BME280_humidity;BME280_pressure;Samples;Min_cycle;Max_cycle;Signal;HPM_P1;HPM_P2
2023/10/10 00:00:57;;;;;;;0.00;0.00;;;16.30;91.10;;;;;;5023224;28;20045;-69
2023/10/10 00:03:25;;;;;;;0.00;0.00;;;16.40;91.20;;;;;;5019281;28;20398;-69
2023/10/10 00:05:57;;;;;;;0.00;0.00;;;16.40;91.20;;;;;;5011053;28;20503;-69
2023/10/10 00:08:33;;;;;;;0.00;0.00;;;16.30;91.10;;;;;;5012755;28;20564;-70
2023/10/10 00:10:59;;;;;;;0.00;0.00;;;16.30;91.20;;;;;;5022984;28;20049;-69
2023/10/10 00:13:25;;;;;;;0.00;0.00;;;16.30;91.30;;;;;;5016863;28;20077;-69
2023/10/10 00:15:51;;;;;;;0.00;0.00;;;16.30;91.20;;;;;;5009938;28;20459;-68
2023/10/10 00:18:20;;;;;;;0.00;0.00;;;16.30;91.20;;;;;;5017618;28;20052;-69
2023/10/10 00:21:07;;;;;;;0.00;0.00;;;16.40;91.20;;;;;;5010039;28;20503;-69
2023/10/10 00:23:47;;;;;;;0.00;0.00;;;16.30;91.20;;;;;;5009456;28;20092;-70
2023/10/10 00:26:14;;;;;;;0.30;0.30;;;16.30;91.30;;;;;;5028369;28;20100;-69
2023/10/10 00:28:42;;;;;;;0.00;0.00;;;16.30;91.40;;;;;;5024745;28;20050;-69
2023/10/10 00:31:10;;;;;;;0.00;0.00;;;16.30;91.40;;;;;;5009566;28;20046;-69
2023/10/10 00:33:40;;;;;;;0.00;0.00;;;16.30;91.40;;;;;;5009712;28;20050;-69
2023/10/10 00:36:12;;;;;;;0.00;0.00;;;16.30;91.30;;;;;;5017093;28;20049;-69
2023/10/10 00:38:38;;;;;;;0.00;0.00;;;16.30;91.30;;;;;;5016982;28;20038;-69
2023/10/10 00:41:10;;;;;;;0.00;0.00;;;16.20;91.30;;;;;;5009603;28;20054;-69
2023/10/10 00:43:36;;;;;;;0.00;0.00;;;16.20;91.30;;;;;;5016053;28;20165;-69
2023/10/10 00:46:04;;;;;;;0.00;0.00;;;16.30;91.30;;;;;;5021579;28;20052;-69
2023/10/10 00:48:32;;;;;;;0.00;0.00;;;16.30;91.20;;;;;;5011824;28;20826;-69
2023/10/10 00:51:11;;;;;;;0.00;0.00;;;16.20;91.30;;;;;;5022844;28;20219;-69
2023/10/10 00:53:41;;;;;;;0.00;0.00;;;16.20;91.40;;;;;;5027924;28;20044;-69
2023/10/10 00:56:07;;;;;;;0.00;0.00;;;16.20;91.30;;;;;;5027804;28;20409;-69
2023/10/10 00:58:37;;;;;;;0.00;0.00;;;16.20;91.30;;;;;;5023813;28;20127;-69
2023/10/10 01:01:09;;;;;;;0.00;0.00;;;16.10;91.30;;;;;;5010970;28;20046;-69
2023/10/10 01:03:42;;;;;;;0.00;0.00;;;16.10;91.30;;;;;;5010953;28;20049;-69
2023/10/10 01:06:20;;;;;;;0.00;0.00;;;16.10;91.30;;;;;;5029002;28;20499;-69
2023/10/10 01:08:55;;;;;;;0.00;0.00;;;16.10;91.40;;;;;;5029354;28;20095;-69
2023/10/10 01:11:22;;;;;;;0.05;0.05;;;16.10;91.40;;;;;;5029535;28;20042;-68
2023/10/10 01:13:52;;;;;;;0.00;0.00;;;16.10;91.40;;;;;;5028968;28;20053;-69
2023/10/10 01:16:23;;;;;;;0.00;0.00;;;16.00;91.40;;;;;;5028989;28;20498;-69
2023/10/10 01:18:58;;;;;;;0.00;0.00;;;16.10;91.50;;;;;;5029133;28;20038;-69
2023/10/10 01:21:30;;;;;;;0.00;0.00;;;16.10;91.50;;;;;;5028613;28;20075;-69
2023/10/10 01:24:11;;;;;;;0.00;0.00;;;16.10;91.50;;;;;;5029167;28;20064;-69
2023/10/10 01:26:38;;;;;;;0.00;0.00;;;16.10;91.50;;;;;;5029191;28;20052;-70
2023/10/10 01:31:59;;;;;;;0.00;0.00;;;16.00;91.60;;;;;;5023225;28;20516;-69
2023/10/10 01:34:43;;;;;;;0.00;0.00;;;16.00;91.70;;;;;;5029104;28;20049;-69
2023/10/10 01:37:30;;;;;;;;;;;16.00;91.70;;;;;;5028741;28;20045;-69
2023/10/10 01:40:17;;;;;;;0.00;0.00;;;16.00;91.70;;;;;;5009170;28;20030;-70
2023/10/10 01:42:59;;;;;;;0.00;0.00;;;16.10;91.80;;;;;;5009246;28;20042;-70
2023/10/10 01:45:27;;;;;;;0.00;0.00;;;16.00;91.80;;;;;;5009282;28;20108;-70
2023/10/10 01:47:56;;;;;;;0.00;0.00;;;16.00;91.70;;;;;;5017886;28;20128;-70
2023/10/10 01:50:25;;;;;;;0.00;0.00;;;16.00;91.70;;;;;;5028543;28;20053;-70
2023/10/10 01:52:53;;;;;;;0.00;0.00;;;16.00;91.80;;;;;;5028914;28;20045;-70
2023/10/10 01:55:22;;;;;;;0.00;0.00;;;16.00;91.80;;;;;;5028908;28;20049;-70
2023/10/10 01:57:48;;;;;;;2.85;1.45;;;16.00;91.80;;;;;;5029145;28;20104;-70
2023/10/10 02:00:21;;;;;;;0.00;0.00;;;16.00;91.90;;;;;;5027981;28;20662;-69
2023/10/10 02:02:49;;;;;;;0.00;0.00;;;15.90;91.90;;;;;;5028224;28;20038;-70
2023/10/10 02:05:29;;;;;;;0.08;0.08;;;16.00;92.00;;;;;;5028922;28;20498;-69
2023/10/10 02:07:57;;;;;;;0.00;0.00;;;15.90;91.90;;;;;;5028955;28;20457;-70
2023/10/10 02:10:26;;;;;;;0.00;0.00;;;16.00;91.90;;;;;;5028495;28;20041;-69
2023/10/10 02:12:52;;;;;;;0.00;0.00;;;15.90;92.00;;;;;;5028127;28;21777;-70
2023/10/10 02:15:18;;;;;;;0.00;0.00;;;15.90;92.00;;;;;;5028030;28;20160;-69
2023/10/10 02:17:55;;;;;;;0.00;0.00;;;15.90;92.10;;;;;;5028778;28;20081;-69
2023/10/10 02:22:54;;;;;;;0.03;0.03;;;15.90;92.20;;;;;;5018693;28;20476;-70
2023/10/10 02:27:55;;;;;;;0.00;0.00;;;15.80;92.30;;;;;;5028633;28;20140;-70
2023/10/10 02:30:34;;;;;;;0.00;0.00;;;15.80;92.20;;;;;;5028566;28;20254;-69
2023/10/10 02:33:05;;;;;;;0.00;0.00;;;15.80;92.20;;;;;;5031866;28;20048;-70
2023/10/10 02:35:46;;;;;;;0.00;0.00;;;15.80;92.30;;;;;;5032022;28;20041;-70
2023/10/10 02:38:12;;;;;;;0.75;0.32;;;15.80;92.50;;;;;;5031543;28;20049;-70
2023/10/10 02:40:42;;;;;;;0.10;0.10;;;15.80;92.50;;;;;;5031895;28;20041;-70
2023/10/10 02:43:33;;;;;;;0.43;0.43;;;15.80;92.60;;;;;;5031059;28;20076;-69
2023/10/10 02:46:00;;;;;;;0.00;0.00;;;15.80;92.50;;;;;;5031663;28;20106;-69
2023/10/10 02:48:27;;;;;;;0.00;0.00;;;15.80;92.50;;;;;;5031476;28;20037;-69
2023/10/10 02:50:53;;;;;;;0.25;0.25;;;15.80;92.50;;;;;;5030997;28;20521;-69
2023/10/10 02:53:19;;;;;;;0.00;0.00;;;15.90;92.60;;;;;;5032062;28;20118;-68
2023/10/10 02:55:52;;;;;;;0.00;0.00;;;15.80;92.60;;;;;;5026566;28;20045;-69
2023/10/10 02:58:21;;;;;;;0.00;0.00;;;15.80;92.70;;;;;;5031746;28;20048;-69
2023/10/10 03:00:48;;;;;;;0.00;0.00;;;15.90;92.80;;;;;;5031905;28;20669;-69
2023/10/10 03:03:20;;;;;;;0.00;0.00;;;15.90;92.80;;;;;;5030981;28;20054;-69
2023/10/10 03:05:54;;;;;;;0.00;0.00;;;15.90;93.00;;;;;;5031760;28;20041;-69
2023/10/10 03:11:00;;;;;;;0.00;0.00;;;15.90;93.00;;;;;;5031010;28;20045;-70
2023/10/10 03:13:28;;;;;;;0.00;0.00;;;15.80;93.00;;;;;;5031223;28;20041;-69
2023/10/10 03:16:14;;;;;;;0.00;0.00;;;15.90;93.00;;;;;;5030947;28;20437;-69
2023/10/10 03:18:53;;;;;;;0.00;0.00;;;15.90;93.10;;;;;;5031192;28;20140;-69
2023/10/10 03:21:35;;;;;;;0.00;0.00;;;15.90;93.10;;;;;;5022942;28;20053;-69
2023/10/10 03:24:07;;;;;;;0.00;0.00;;;15.90;93.00;;;;;;5011351;28;20046;-69
2023/10/10 03:29:20;;;;;;;0.00;0.00;;;16.00;93.10;;;;;;5031298;28;20037;-69
2023/10/10 03:31:48;;;;;;;0.00;0.00;;;15.90;93.00;;;;;;5031697;28;20049;-70
2023/10/10 03:37:04;;;;;;;0.00;0.00;;;15.90;93.00;;;;;;5031090;28;20131;-68
2023/10/10 03:39:49;;;;;;;0.00;0.00;;;15.90;93.00;;;;;;5011231;28;20045;-69
2023/10/10 05:23:50;;;;;;;0.00;0.00;;;15.70;92.90;;;;;;5021261;28;20049;-68
2023/10/10 05:26:20;;;;;;;0.00;0.00;;;15.70;92.90;;;;;;5025527;28;20481;-68
2023/10/10 05:28:46;;;;;;;0.10;0.10;;;15.60;92.90;;;;;;5027799;28;20115;-68
2023/10/10 05:31:17;;;;;;;0.08;0.08;;;15.60;92.90;;;;;;5025695;28;20049;-67
2023/10/10 05:33:43;;;;;;;0.17;0.17;;;15.70;92.90;;;;;;5025718;28;20160;-66
2023/10/10 05:36:09;;;;;;;0.00;0.00;;;15.70;92.80;;;;;;5027446;28;20145;-68
2023/10/10 05:38:36;;;;;;;0.00;0.00;;;15.70;92.90;;;;;;5027214;28;20049;-68
2023/10/10 05:41:03;;;;;;;0.10;0.10;;;15.60;92.90;;;;;;5027205;28;20132;-67
2023/10/10 05:43:33;;;;;;;0.00;0.00;;;15.60;92.90;;;;;;5023718;28;20536;-67
2023/10/10 05:46:00;;;;;;;0.00;0.00;;;15.60;92.90;;;;;;5020199;28;20056;-68
2023/10/10 05:48:26;;;;;;;0.00;0.00;;;15.70;92.90;;;;;;5027089;28;21206;-67
2023/10/10 05:50:53;;;;;;;0.00;0.00;;;15.60;92.90;;;;;;5027151;28;20055;-68
2023/10/10 05:53:20;;;;;;;0.00;0.00;;;15.60;92.90;;;;;;5027607;28;20056;-67
2023/10/10 05:55:51;;;;;;;0.00;0.00;;;15.60;93.00;;;;;;5026259;28;20058;-67
2023/10/10 05:58:17;;;;;;;0.00;0.00;;;15.60;93.00;;;;;;5027601;28;20034;-68
2023/10/10 06:00:44;;;;;;;0.00;0.00;;;15.60;93.00;;;;;;5026488;28;20152;-68
2023/10/10 06:03:12;;;;;;;0.03;0.03;;;15.60;93.00;;;;;;5026705;28;20041;-68
2023/10/10 06:05:50;;;;;;;0.00;0.00;;;15.60;92.90;;;;;;5027513;28;20415;-68
2023/10/10 06:08:16;;;;;;;0.00;0.00;;;15.60;93.00;;;;;;5030912;28;20422;-70
2023/10/10 06:10:43;;;;;;;0.00;0.00;;;15.60;92.90;;;;;;5030339;28;20057;-68
2023/10/10 06:13:11;;;;;;;0.00;0.00;;;15.60;92.90;;;;;;5029723;28;20044;-69
2023/10/10 06:15:37;;;;;;;0.00;0.00;;;15.60;92.90;;;;;;5030617;28;20053;-68
2023/10/10 06:18:13;;;;;;;0.00;0.00;;;15.60;93.00;;;;;;5031204;28;20434;-67
2023/10/10 06:20:42;;;;;;;0.00;0.00;;;15.60;92.90;;;;;;5029975;28;20053;-67
2023/10/10 06:23:16;;;;;;;0.00;0.00;;;15.70;93.00;;;;;;5031222;28;20175;-67
2023/10/10 06:25:43;;;;;;;0.00;0.00;;;15.70;93.10;;;;;;5032281;28;20041;-67
2023/10/10 06:28:25;;;;;;;1.10;0.25;;;15.70;93.20;;;;;;5032359;28;20036;-67
2023/10/10 06:30:52;;;;;;;0.00;0.00;;;15.70;93.20;;;;;;5033192;28;20046;-66
2023/10/10 06:33:27;;;;;;;0.00;0.00;;;15.70;93.20;;;;;;5032305;28;20048;-70
2023/10/10 06:36:32;;;;;;;0.00;0.00;;;15.70;93.20;;;;;;5015923;28;20566;-69
2023/10/10 06:39:15;;;;;;;0.00;0.00;;;15.70;93.10;;;;;;5019915;28;20189;-68
2023/10/10 06:41:54;;;;;;;0.10;0.10;;;15.80;93.00;;;;;;5030147;28;20039;-69
2023/10/10 06:44:32;;;;;;;0.00;0.00;;;15.70;93.00;;;;;;5030400;28;20049;-69
2023/10/10 06:47:00;;;;;;;0.00;0.00;;;15.70;93.00;;;;;;5027742;28;20153;-69
2023/10/10 06:49:26;;;;;;;0.08;0.05;;;15.70;93.00;;;;;;5029874;28;20077;-69
2023/10/10 06:51:55;;;;;;;0.00;0.00;;;15.70;93.00;;;;;;5030405;28;20050;-69
2023/10/10 06:54:27;;;;;;;0.17;0.17;;;15.80;93.10;;;;;;5020598;28;20115;-69
2023/10/10 06:59:27;;;;;;;0.00;0.00;;;15.80;93.10;;;;;;5028951;28;20053;-69
2023/10/10 07:01:54;;;;;;;0.10;0.10;;;15.80;93.10;;;;;;5029685;28;20448;-69
2023/10/10 07:04:20;;;;;;;0.00;0.00;;;15.80;93.00;;;;;;5018950;28;20177;-69
2023/10/10 07:06:47;;;;;;;0.00;0.00;;;15.90;93.00;;;;;;5026536;28;20132;-68
2023/10/10 07:09:28;;;;;;;0.10;0.10;;;15.90;93.00;;;;;;5030905;28;20446;-69
2023/10/10 07:12:09;;;;;;;0.00;0.00;;;15.90;93.00;;;;;;5011388;28;20038;-69
2023/10/10 07:14:40;;;;;;;0.38;0.38;;;16.00;93.00;;;;;;5027399;28;20111;-69
2023/10/10 07:17:13;;;;;;;0.00;0.00;;;16.00;93.00;;;;;;5024401;28;20521;-68
2023/10/10 07:21:04;;;;;;;1.00;0.47;;;16.00;93.10;;;;;;5031437;28;20065;-69
2023/10/10 07:22:44;;;;;;;0.98;0.43;;;16.00;93.10;;;;;;5029781;28;20054;-68
2023/10/10 07:25:25;;;;;;;0.35;0.35;;;16.10;93.10;;;;;;5025388;28;20085;-69
2023/10/10 07:27:51;;;;;;;0.08;0.08;;;16.10;93.10;;;;;;5001877;28;20053;-69
2023/10/10 07:30:16;;;;;;;0.00;0.00;;;16.20;93.20;;;;;;5028988;28;20056;-69
2023/10/10 07:32:48;;;;;;;0.10;0.10;;;16.20;93.10;;;;;;5029930;28;20132;-69
2023/10/10 07:35:15;;;;;;;0.00;0.00;;;16.30;93.20;;;;;;5024173;28;20079;-69
2023/10/10 07:37:45;;;;;;;0.08;0.08;;;16.30;93.10;;;;;;5027775;28;20052;-68
2023/10/10 07:42:40;;;;;;;2.08;0.98;;;16.40;93.00;;;;;;5029202;28;20042;-70
2023/10/10 07:45:16;;;;;;;7.40;0.80;;;16.40;93.00;;;;;;5028414;28;20418;-69
2023/10/10 07:50:26;;;;;;;0.13;0.13;;;16.40;92.80;;;;;;5025370;28;20050;-69
2023/10/10 07:52:52;;;;;;;0.10;0.10;;;16.50;92.80;;;;;;5017413;28;20053;-70
2023/10/10 07:55:18;;;;;;;0.20;0.20;;;16.50;92.80;;;;;;5005579;28;20046;-70
2023/10/10 07:57:55;;;;;;;0.75;0.70;;;16.50;92.80;;;;;;5018525;28;20061;-70
2023/10/10 08:00:27;;;;;;;1.27;0.95;;;16.50;92.70;;;;;;5010802;28;20178;-70
2023/10/10 08:02:53;;;;;;;0.38;0.38;;;16.50;92.60;;;;;;5009995;28;20188;-70
2023/10/10 08:05:20;;;;;;;1.65;1.48;;;16.50;92.60;;;;;;5010471;28;20138;-70
2023/10/10 08:07:48;;;;;;;0.20;0.20;;;16.60;92.40;;;;;;5024463;28;20053;-69
2023/10/10 08:10:29;;;;;;;0.03;0.03;;;16.60;92.40;;;;;;5027456;28;20052;-70
2023/10/10 08:12:56;;;;;;;0.10;0.10;;;16.60;92.40;;;;;;5030546;28;20064;-70
2023/10/10 08:15:25;;;;;;;1.55;1.45;;;16.60;92.40;;;;;;5023430;28;20554;-69
2023/10/10 08:17:54;;;;;;;0.17;0.17;;;16.60;92.40;;;;;;5024656;28;20172;-70
2023/10/10 08:20:34;;;;;;;3.30;0.60;;;16.60;92.40;;;;;;5024427;28;20071;-69
2023/10/10 08:23:04;;;;;;;0.68;0.68;;;16.60;92.40;;;;;;5029212;28;20100;-70
2023/10/10 08:25:30;;;;;;;0.13;0.13;;;16.70;92.30;;;;;;5028518;28;20038;-69
2023/10/10 08:27:58;;;;;;;0.80;0.55;;;16.70;92.20;;;;;;5029612;28;20564;-70
2023/10/10 08:30:26;;;;;;;7.13;0.75;;;16.70;92.20;;;;;;5029192;28;20045;-69
2023/10/10 08:32:58;;;;;;;0.65;0.65;;;16.70;92.10;;;;;;5030152;28;20452;-69
2023/10/10 08:35:29;;;;;;;3.30;1.58;;;16.80;92.10;;;;;;5028309;28;20045;-70
2023/10/10 08:37:56;;;;;;;1.60;1.40;;;16.90;92.00;;;;;;5020174;28;20049;-70
2023/10/10 08:40:23;;;;;;;0.85;0.75;;;16.90;91.70;;;;;;5029769;28;20057;-69
2023/10/10 08:42:50;;;;;;;0.57;0.57;;;16.90;91.80;;;;;;5028351;28;20049;-69
2023/10/10 08:45:23;;;;;;;6.13;1.65;;;16.90;91.70;;;;;;5049357;28;20049;-70
2023/10/10 08:47:58;;;;;;;0.05;0.05;;;17.00;91.60;;;;;;5047749;28;20505;-69
2023/10/10 08:50:24;;;;;;;0.05;0.05;;;17.10;91.50;;;;;;5025857;28;20046;-70
2023/10/10 08:52:51;;;;;;;0.88;0.43;;;17.10;91.40;;;;;;5028498;28;20037;-70
2023/10/10 08:55:28;;;;;;;0.05;0.05;;;17.10;91.30;;;;;;5027961;28;20445;-69
2023/10/10 08:57:55;;;;;;;0.90;0.90;;;17.10;91.20;;;;;;5009792;28;20042;-69
2023/10/10 09:00:22;;;;;;;0.55;0.52;;;17.10;91.20;;;;;;5016108;28;20103;-70
2023/10/10 09:02:49;;;;;;;0.73;0.45;;;17.20;91.00;;;;;;5022418;28;20582;-70
2023/10/10 09:05:15;;;;;;;0.15;0.15;;;17.20;91.00;;;;;;5015168;28;20056;-70
2023/10/10 09:07:43;;;;;;;0.45;0.45;;;17.20;90.70;;;;;;5018462;28;20060;-70
2023/10/10 09:10:15;;;;;;;0.00;0.00;;;17.30;90.60;;;;;;5010390;28;20034;-70
2023/10/10 09:12:59;;;;;;;0.00;0.00;;;17.30;90.50;;;;;;5027674;28;20045;-72
2023/10/10 09:15:26;;;;;;;0.10;0.10;;;17.40;90.50;;;;;;5023575;28;20057;-70
2023/10/10 09:17:59;;;;;;;0.20;0.20;;;17.40;90.30;;;;;;5027814;28;20046;-69
2023/10/10 09:20:30;;;;;;;0.30;0.30;;;17.50;90.30;;;;;;5028927;28;20506;-70
2023/10/10 09:23:12;;;;;;;0.82;0.82;;;17.50;90.20;;;;;;5029469;28;20125;-69
2023/10/10 09:25:42;;;;;;;0.32;0.32;;;17.60;89.80;;;;;;5028480;28;20148;-70
2023/10/10 09:28:10;;;;;;;0.00;0.00;;;17.60;89.90;;;;;;5028769;28;20164;-70
2023/10/10 09:30:49;;;;;;;0.60;0.43;;;17.60;89.60;;;;;;5028159;28;20045;-70
2023/10/10 09:33:23;;;;;;;2.47;1.55;;;17.60;89.50;;;;;;5027388;28;20041;-70
2023/10/10 09:35:58;;;;;;;0.52;0.45;;;17.70;89.20;;;;;;5028039;28;20525;-70
2023/10/10 09:38:27;;;;;;;0.00;0.00;;;17.70;88.90;;;;;;5027139;28;20053;-70
2023/10/10 09:41:10;;;;;;;0.00;0.00;;;17.80;88.60;;;;;;5027500;28;20045;-69
2023/10/10 09:44:26;;;;;;;1.27;1.17;;;17.80;88.40;;;;;;5025183;28;20046;-69
2023/10/10 09:55:53;;;;;;;0.08;0.08;;;18.00;87.00;;;;;;5009274;28;20050;-69
2023/10/10 10:06:37;;;;;;;0.00;0.00;;;17.90;86.20;;;;;;4985982;28;20054;-70
2023/10/10 10:09:34;;;;;;;0.00;0.00;;;18.00;86.30;;;;;;4970869;28;20047;-69
2023/10/10 10:12:36;;;;;;;0.75;0.75;;;18.10;86.60;;;;;;5021008;28;20503;-70
2023/10/10 10:15:16;;;;;;;1.23;1.13;;;18.30;86.60;;;;;;5012199;28;20054;-70
2023/10/10 10:18:17;;;;;;;5.93;2.38;;;18.40;86.50;;;;;;5018124;28;20091;-70
2023/10/10 10:21:05;;;;;;;0.10;0.10;;;18.50;85.90;;;;;;5027995;28;20171;-70
2023/10/10 10:23:44;;;;;;;1.30;1.20;;;18.50;85.20;;;;;;5027753;28;20536;-70
2023/10/10 10:26:12;;;;;;;0.00;0.00;;;18.60;86.00;;;;;;5021928;28;20049;-69
2023/10/10 10:28:42;;;;;;;1.90;0.80;;;18.60;86.00;;;;;;5019560;28;20041;-70
2023/10/10 10:31:27;;;;;;;0.70;0.70;;;18.70;85.00;;;;;;5024356;28;20055;-70
2023/10/10 10:34:23;;;;;;;0.30;0.30;;;18.80;84.80;;;;;;5020744;28;20053;-70
2023/10/10 10:37:20;;;;;;;1.38;0.85;;;18.70;85.20;;;;;;5027536;28;20421;-70
2023/10/10 10:40:23;;;;;;;0.80;0.80;;;18.90;85.70;;;;;;5027134;28;20038;-70
2023/10/10 10:42:37;;;;;;;0.10;0.10;;;18.80;84.30;;;;;;5026151;28;20049;-70
2023/10/10 10:45:24;;;;;;;0.43;0.43;;;18.90;84.50;;;;;;5027291;28;20049;-70
2023/10/10 10:47:54;;;;;;;1.10;1.10;;;19.00;84.50;;;;;;5010538;28;20045;-70
2023/10/10 10:50:40;;;;;;;0.10;0.10;;;19.10;84.80;;;;;;5008653;28;20038;-71
2023/10/10 10:53:20;;;;;;;0.57;0.57;;;19.30;84.60;;;;;;5010971;28;20076;-70
2023/10/10 10:56:06;;;;;;;0.82;0.82;;;19.20;84.20;;;;;;4995831;28;20049;-70
2023/10/10 11:01:20;;;;;;;0.77;0.77;;;19.30;83.20;;;;;;5019212;28;20549;-70
2023/10/10 11:03:46;;;;;;;6.75;4.22;;;19.40;84.00;;;;;;5027302;28;20453;-69
2023/10/10 11:06:14;;;;;;;0.20;0.20;;;19.40;84.10;;;;;;5029857;28;20038;-70
2023/10/10 11:13:55;;;;;;;0.50;0.50;;;19.30;83.80;;;;;;5031262;28;20490;-69
2023/10/10 11:16:28;;;;;;;0.30;0.30;;;19.20;83.10;;;;;;5031303;28;20053;-69
2023/10/10 11:18:57;;;;;;;0.40;0.40;;;19.10;83.90;;;;;;5030121;28;20089;-69
2023/10/10 11:21:27;;;;;;;0.50;0.50;;;19.10;84.20;;;;;;5030001;28;20044;-69
2023/10/10 11:24:04;;;;;;;1.05;0.75;;;19.20;84.30;;;;;;5029888;28;20502;-69
2023/10/10 11:26:35;;;;;;;0.40;0.40;;;19.10;84.60;;;;;;5029282;28;20133;-67
2023/10/10 11:29:27;;;;;;;0.38;0.38;;;19.20;84.40;;;;;;5031126;28;20883;-68
2023/10/10 11:32:08;;;;;;;0.10;0.10;;;19.20;84.50;;;;;;5012370;28;20052;-69
2023/10/10 11:34:42;;;;;;;0.65;0.60;;;19.20;84.60;;;;;;5017170;28;20490;-68
2023/10/10 11:37:21;;;;;;;0.30;0.30;;;19.30;84.60;;;;;;5031100;28;20124;-68
2023/10/10 11:39:48;;;;;;;0.70;0.70;;;19.40;85.00;;;;;;5029901;28;20045;-68
2023/10/10 11:42:27;;;;;;;0.10;0.10;;;19.50;84.90;;;;;;5019896;28;20049;-67
2023/10/10 11:45:07;;;;;;;0.15;0.15;;;19.50;84.90;;;;;;5029682;28;20053;-68
2023/10/10 11:47:44;;;;;;;0.20;0.20;;;19.50;84.80;;;;;;5031147;28;20049;-68
2023/10/10 11:50:17;;;;;;;0.00;0.00;;;19.60;84.70;;;;;;5031562;28;20136;-69
2023/10/10 11:52:57;;;;;;;0.10;0.10;;;19.70;84.90;;;;;;5013396;28;20140;-69
2023/10/10 11:55:27;;;;;;;5.88;0.45;;;19.70;84.40;;;;;;5020495;28;20038;-68
2023/10/10 11:57:57;;;;;;;0.82;0.82;;;19.80;84.50;;;;;;5011155;28;20089;-69
2023/10/10 12:00:42;;;;;;;0.30;0.30;;;19.80;84.40;;;;;;5008337;28;20089;-69
2023/10/10 12:03:10;;;;;;;0.30;0.30;;;19.80;84.50;;;;;;5009263;28;20092;-68
2023/10/10 12:05:50;;;;;;;0.10;0.10;;;19.80;84.60;;;;;;5021297;28;20045;-69
2023/10/10 12:08:23;;;;;;;0.25;0.25;;;19.80;84.60;;;;;;5029176;28;20051;-69
2023/10/10 12:10:52;;;;;;;1.00;1.00;;;19.80;84.60;;;;;;5028886;28;20053;-69
2023/10/10 12:16:11;;;;;;;0.20;0.20;;;19.70;84.40;;;;;;5015725;28;20069;-69
2023/10/10 12:18:46;;;;;;;1.92;1.02;;;19.60;84.80;;;;;;5010881;28;20045;-69
2023/10/10 12:21:20;;;;;;;0.13;0.13;;;19.60;85.10;;;;;;5010928;28;20042;-69
2023/10/10 12:23:55;;;;;;;0.15;0.15;;;19.60;85.20;;;;;;5010648;28;20049;-69
2023/10/10 12:26:24;;;;;;;0.00;0.00;;;19.60;85.30;;;;;;5027945;28;20132;-69
2023/10/10 12:28:52;;;;;;;0.85;0.75;;;19.60;85.50;;;;;;5029434;28;20128;-69
2023/10/10 12:31:18;;;;;;;0.70;0.70;;;19.60;85.70;;;;;;5030324;28;20137;-69
2023/10/10 12:33:53;;;;;;;0.10;0.10;;;19.60;85.70;;;;;;5030444;28;20045;-69
2023/10/10 12:36:28;;;;;;;0.10;0.10;;;19.60;85.70;;;;;;5013408;28;20100;-69
2023/10/10 12:38:55;;;;;;;0.25;0.25;;;19.60;85.70;;;;;;5010609;28;20056;-69
2023/10/10 12:41:21;;;;;;;0.20;0.20;;;19.60;85.60;;;;;;5010599;28;20049;-69
2023/10/10 12:43:47;;;;;;;0.73;0.68;;;19.60;85.70;;;;;;5012933;28;20482;-68
2023/10/10 12:46:16;;;;;;;0.13;0.13;;;19.60;85.90;;;;;;5029741;28;20049;-69
2023/10/10 12:48:43;;;;;;;0.63;0.52;;;19.70;86.00;;;;;;5012284;28;20046;-68
2023/10/10 12:51:09;;;;;;;0.77;0.77;;;19.70;86.10;;;;;;5029162;28;20052;-66
2023/10/10 12:53:39;;;;;;;0.10;0.10;;;19.70;86.00;;;;;;5018665;28;20576;-69
2023/10/10 12:56:11;;;;;;;0.00;0.00;;;19.80;85.60;;;;;;5009820;28;20785;-68
2023/10/10 12:58:42;;;;;;;0.17;0.17;;;19.70;85.40;;;;;;5029331;28;20047;-69
2023/10/10 13:01:12;;;;;;;0.57;0.57;;;19.70;85.30;;;;;;5028353;28;20060;-68
2023/10/10 13:03:38;;;;;;;0.15;0.15;;;19.80;85.50;;;;;;5028482;28;20045;-69
2023/10/10 13:06:06;;;;;;;0.00;0.00;;;19.90;85.50;;;;;;5010991;28;20061;-69
2023/10/10 13:08:48;;;;;;;0.68;0.60;;;20.00;85.10;;;;;;5026990;28;20053;-68
2023/10/10 13:11:19;;;;;;;0.70;0.70;;;20.10;84.80;;;;;;5017552;28;20057;-68
2023/10/10 13:13:51;;;;;;;0.28;0.25;;;20.10;85.00;;;;;;5009296;28;20132;-69
2023/10/10 13:16:25;;;;;;;0.10;0.10;;;20.20;85.00;;;;;;5024552;28;20051;-67
2023/10/10 13:18:56;;;;;;;0.00;0.00;;;20.20;84.80;;;;;;5020602;28;20046;-68
2023/10/10 13:21:23;;;;;;;0.93;0.85;;;20.20;84.60;;;;;;5022865;28;20054;-68
2023/10/10 13:23:49;;;;;;;0.10;0.10;;;20.20;84.70;;;;;;5028656;28;20045;-68
2023/10/10 13:26:16;;;;;;;0.47;0.47;;;20.20;84.80;;;;;;5027762;28;20092;-68
2023/10/10 13:28:44;;;;;;;0.10;0.10;;;20.20;84.50;;;;;;5025168;28;20042;-69
2023/10/10 13:31:18;;;;;;;0.30;0.30;;;20.20;84.90;;;;;;5010496;28;20221;-68
2023/10/10 13:33:44;;;;;;;2.67;1.08;;;20.10;85.00;;;;;;5028204;28;20084;-68
2023/10/10 13:36:12;;;;;;;0.80;0.80;;;20.10;84.70;;;;;;5028256;28;20089;-68
2023/10/10 13:38:48;;;;;;;3.00;2.08;;;20.10;85.00;;;;;;5027591;28;20045;-69
2023/10/10 13:41:27;;;;;;;0.22;0.22;;;20.10;84.10;;;;;;5027084;28;20053;-62
2023/10/10 13:43:57;;;;;;;1.45;0.50;;;20.10;84.10;;;;;;5027743;28;20049;-64
2023/10/10 13:46:23;;;;;;;0.73;0.60;;;20.10;84.10;;;;;;5026913;28;20053;-68
2023/10/10 13:48:49;;;;;;;1.75;1.08;;;20.10;83.90;;;;;;5027099;28;20037;-69
2023/10/10 13:51:16;;;;;;;0.68;0.68;;;20.10;84.00;;;;;;5025840;28;20068;-67
2023/10/10 13:53:44;;;;;;;0.55;0.55;;;20.10;84.20;;;;;;5022554;28;20140;-68
2023/10/10 13:56:11;;;;;;;1.25;0.90;;;20.10;84.40;;;;;;5022514;28;20047;-68
2023/10/10 13:58:37;;;;;;;1.65;1.55;;;20.10;84.30;;;;;;5021181;28;20048;-68
2023/10/10 14:03:45;;;;;;;5.47;0.70;;;20.00;84.00;;;;;;5025175;28;20049;-69
2023/10/10 14:06:19;;;;;;;0.20;0.20;;;20.10;83.90;;;;;;5007083;28;20160;-70
2023/10/10 14:08:47;;;;;;;0.38;0.38;;;20.10;83.90;;;;;;5025495;28;20092;-68
2023/10/10 14:11:23;;;;;;;1.55;0.52;;;20.10;84.20;;;;;;5023875;28;20038;-68
2023/10/10 14:13:53;;;;;;;3.00;1.08;;;20.10;83.60;;;;;;5025080;28;20054;-68
2023/10/10 14:16:20;;;;;;;0.10;0.10;;;20.10;83.40;;;;;;5023957;28;20565;-68
2023/10/10 14:18:47;;;;;;;0.13;0.13;;;20.10;83.80;;;;;;5025992;28;20041;-69
2023/10/10 14:21:14;;;;;;;0.77;0.70;;;20.10;83.90;;;;;;5024730;28;20040;-68
2023/10/10 14:23:40;;;;;;;0.68;0.32;;;20.10;83.50;;;;;;5024418;28;20047;-68
2023/10/10 14:26:13;;;;;;;0.68;0.63;;;20.20;84.00;;;;;;5026660;28;20432;-68
2023/10/10 14:28:53;;;;;;;1.20;0.90;;;20.10;83.40;;;;;;5026561;28;20044;-68
2023/10/10 14:31:31;;;;;;;1.55;1.45;;;20.10;83.00;;;;;;5027635;28;20136;-69
2023/10/10 14:34:00;;;;;;;3.50;0.73;;;20.10;83.40;;;;;;5028402;28;20422;-68
2023/10/10 14:36:27;;;;;;;0.60;0.60;;;20.10;83.40;;;;;;5024745;28;20139;-68
2023/10/10 14:38:53;;;;;;;0.10;0.10;;;20.00;83.10;;;;;;5028991;28;20045;-68
2023/10/10 14:41:20;;;;;;;0.10;0.10;;;20.00;83.40;;;;;;5027331;28;20516;-69
2023/10/10 14:43:51;;;;;;;1.23;0.50;;;20.00;83.40;;;;;;5027361;28;20044;-67
2023/10/10 14:46:21;;;;;;;1.05;0.88;;;20.00;83.40;;;;;;5028517;28;20402;-69
2023/10/10 14:48:49;;;;;;;1.27;1.17;;;20.00;83.50;;;;;;5025937;28;20081;-68
2023/10/10 14:51:17;;;;;;;0.52;0.30;;;20.00;83.60;;;;;;5028595;28;20467;-69
2023/10/10 14:53:51;;;;;;;0.70;0.70;;;20.00;83.50;;;;;;5029228;28;20057;-69
2023/10/10 14:56:22;;;;;;;2.28;1.20;;;20.00;83.20;;;;;;5027565;28;20056;-70
2023/10/10 14:58:49;;;;;;;0.00;0.00;;;19.90;83.40;;;;;;5027878;28;20076;-70
2023/10/10 15:01:18;;;;;;;0.30;0.30;;;19.90;83.30;;;;;;5028724;28;20053;-70
2023/10/10 15:03:47;;;;;;;0.30;0.30;;;19.90;83.40;;;;;;5030427;28;20053;-70
2023/10/10 15:06:15;;;;;;;0.35;0.35;;;19.80;83.50;;;;;;5012520;28;20045;-70
2023/10/10 15:08:43;;;;;;;0.52;0.52;;;19.80;83.30;;;;;;5028067;28;20099;-70
2023/10/10 15:11:11;;;;;;;1.58;1.00;;;19.80;83.30;;;;;;5029847;28;20592;-70
2023/10/10 15:13:41;;;;;;;1.30;1.25;;;19.70;83.50;;;;;;5012778;28;20491;-70
2023/10/10 15:16:09;;;;;;;0.28;0.28;;;19.70;83.80;;;;;;5029974;28;20053;-70
2023/10/10 15:18:36;;;;;;;0.10;0.10;;;19.70;83.90;;;;;;5031295;28;20053;-70
2023/10/10 15:21:07;;;;;;;0.08;0.08;;;19.70;84.00;;;;;;5030335;28;20103;-70
2023/10/10 15:23:32;;;;;;;0.10;0.10;;;19.80;84.00;;;;;;5029389;28;20084;-70
2023/10/10 15:26:05;;;;;;;0.50;0.50;;;19.80;84.10;;;;;;5029810;28;20073;-70
2023/10/10 15:28:31;;;;;;;0.10;0.10;;;19.80;84.10;;;;;;5036296;28;20580;-69
2023/10/10 15:30:57;;;;;;;0.17;0.17;;;19.80;84.10;;;;;;5009348;28;20060;-69
2023/10/10 15:33:25;;;;;;;4.82;0.88;;;19.70;84.10;;;;;;5028869;28;20045;-69
2023/10/10 15:35:52;;;;;;;0.10;0.10;;;19.70;84.10;;;;;;5030653;28;20414;-70
2023/10/10 15:38:22;;;;;;;0.20;0.20;;;19.70;83.90;;;;;;5029875;28;20057;-69
2023/10/10 15:40:49;;;;;;;0.22;0.22;;;19.70;84.10;;;;;;5011774;28;20518;-70
2023/10/10 15:43:15;;;;;;;0.10;0.10;;;19.60;84.20;;;;;;5011266;28;20046;-69
2023/10/10 15:45:47;;;;;;;0.00;0.00;;;19.70;84.00;;;;;;5011182;28;21081;-70
2023/10/10 15:48:23;;;;;;;0.10;0.10;;;19.60;84.10;;;;;;4993501;28;20588;-69